Time;durP1;ratioP1;P1;durP2;ratioP2;P2;SDS_P1;SDS_P2;PMS_P1;PMS_P2;Temp;Humidity;BMP_temperature;BMP_pressure;BME280_temperature;BME280_humidity;BME280_pressure;Samples;Min_cycle;Max_cycle;Signal;HPM_P1;HPM_P2
2022/12/25 00:00:22;;;;;;;0.50;0.50;;;;;;;7.23;100.00;97032.91;29394;230;64009;-78
2022/12/25 00:00:53;;;;;;;0.50;0.50;;;;;;;7.28;99.83;97022.91;29395;206;63009;-59
2022/12/25 00:01:25;;;;;;;0.50;0.50;;;;;;;7.30;99.63;97015.34;29395;212;63004;-57
2022/12/25 00:01:57;;;;;;;0.57;0.57;;;;;;;7.28;99.18;97025.59;29395;220;63009;-60
2022/12/25 00:02:28;;;;;;;0.50;0.50;;;;;;;7.25;99.40;97020.78;29395;238;63004;-59
2022/12/25 00:03:00;;;;;;;0.50;0.50;;;;;;;7.25;99.50;97028.87;29395;202;63008;-71
2022/12/25 00:03:31;;;;;;;0.55;0.55;;;;;;;7.27;99.40;97021.31;29395;211;63004;-58
2022/12/25 00:04:02;;;;;;;0.60;0.60;;;;;;;7.29;99.61;97024.53;29395;376;63009;-71
2022/12/25 00:04:33;;;;;;;0.50;0.50;;;;;;;7.28;99.54;97022.91;29395;222;63005;-58
2022/12/25 00:05:06;;;;;;;0.60;0.60;;;;;;;7.29;99.18;97019.13;29394;220;64014;-60
2022/12/25 00:05:38;;;;;;;0.50;0.50;;;;;;;7.29;99.16;97016.44;29395;214;63005;-70
2022/12/25 00:06:10;;;;;;;0.50;0.50;;;;;;;7.29;99.24;97018.31;29395;225;63009;-59
2022/12/25 00:06:41;;;;;;;0.60;0.60;;;;;;;7.30;99.55;97018.06;29395;219;63005;-73
2022/12/25 00:07:13;;;;;;;0.52;0.52;;;;;;;7.30;99.60;97020.75;29395;210;63009;-58
2022/12/25 00:07:44;;;;;;;0.50;0.50;;;;;;;7.29;99.68;97024.53;29394;244;64009;-69
2022/12/25 00:08:16;;;;;;;0.52;0.52;;;;;;;7.29;99.38;97024.53;29395;205;63013;-58
2022/12/25 00:08:47;;;;;;;0.55;0.55;;;;;;;7.26;99.74;97025.09;29395;202;63004;-58
2022/12/25 00:09:18;;;;;;;0.50;0.50;;;;;;;7.24;99.71;97021.84;29395;198;63009;-58
2022/12/25 00:09:50;;;;;;;0.50;0.50;;;;;;;7.23;99.68;97030.22;29395;217;63004;-58
2022/12/25 00:10:21;;;;;;;0.60;0.60;;;;;;;7.19;100.00;97029.94;29394;209;64013;-58
2022/12/25 00:11:00;;;;;;;0.50;0.50;;;;;;;7.18;100.00;97028.31;29395;250;63004;-58
2022/12/25 00:11:32;;;;;;;0.50;0.50;;;;;;;7.17;100.00;97026.69;29395;323;63009;-59
2022/12/25 00:12:04;;;;;;;0.50;0.50;;;;;;;7.20;100.00;97023.47;29394;218;64009;-59
2022/12/25 00:12:35;;;;;;;0.50;0.50;;;;;;;7.22;100.00;97029.41;29395;205;63009;-58
2022/12/25 00:13:06;;;;;;;0.50;0.50;;;;;;;7.23;100.00;97025.62;29395;196;63005;-58
2022/12/25 00:13:38;;;;;;;0.50;0.50;;;;;;;7.23;100.00;97025.62;29395;241;63005;-59
2022/12/25 00:14:09;;;;;;;0.50;0.50;;;;;;;7.23;100.00;97020.22;29395;205;63005;-59
2022/12/25 00:14:41;;;;;;;0.50;0.50;;;;;;;7.28;99.78;97017.50;29395;251;63009;-59
2022/12/25 00:15:12;;;;;;;0.50;0.50;;;;;;;7.32;99.78;97018.59;29395;225;63005;-58
2022/12/25 00:15:43;;;;;;;0.50;0.50;;;;;;;7.31;99.39;97022.38;29394;286;64013;-59
2022/12/25 00:16:18;;;;;;;0.50;0.50;;;;;;;7.31;99.39;97027.78;29395;233;63004;-58
2022/12/25 00:16:50;;;;;;;0.50;0.50;;;;;;;7.33;99.77;97036.41;29395;233;63009;-58
2022/12/25 00:17:21;;;;;;;0.50;0.50;;;;;;;7.32;99.45;97028.59;29395;220;63011;-59
2022/12/25 00:17:53;;;;;;;0.50;0.50;;;;;;;7.31;99.63;97029.66;29395;220;63008;-58
2022/12/25 00:18:25;;;;;;;0.50;0.50;;;;;;;7.30;99.35;97026.16;29395;202;63000;-58
2022/12/25 00:18:57;;;;;;;0.52;0.52;;;;;;;7.29;99.64;97024.53;29395;269;63019;-59
2022/12/25 00:19:29;;;;;;;0.60;0.60;;;;;;;7.29;99.58;97029.94;29394;209;64009;-70
2022/12/25 00:20:00;;;;;;;0.60;0.60;;;;;;;7.29;99.50;97029.94;29395;208;63018;-59
2022/12/25 00:20:31;;;;;;;0.50;0.50;;;;;;;7.28;99.57;97028.31;29394;221;64001;-69
2022/12/25 00:21:05;;;;;;;0.57;0.57;;;;;;;7.27;99.95;97032.12;29395;209;63009;-71
2022/12/25 00:21:37;;;;;;;0.50;0.50;;;;;;;7.26;99.56;97041.28;29395;276;63005;-59
2022/12/25 00:22:09;;;;;;;0.60;0.60;;;;;;;7.24;99.98;97038.03;29395;199;63009;-66
2022/12/25 00:22:40;;;;;;;0.50;0.50;;;;;;;7.23;100.00;97039.13;29395;271;63004;-58
2022/12/25 00:23:11;;;;;;;0.52;0.52;;;;;;;7.23;99.82;97043.72;29395;231;63009;-70
2022/12/25 00:23:43;;;;;;;0.50;0.50;;;;;;;7.22;100.00;97040.19;29395;198;63004;-58
2022/12/25 00:24:17;;;;;;;0.60;0.60;;;;;;;7.23;100.00;97041.00;29395;218;63009;-59
2022/12/25 00:24:49;;;;;;;0.50;0.50;;;;;;;7.22;100.00;97042.91;29395;227;63004;-67
2022/12/25 00:25:22;;;;;;;0.50;0.50;;;;;;;7.22;100.00;97039.38;29394;208;64013;-58
2022/12/25 00:25:54;;;;;;;0.60;0.60;;;;;;;7.19;100.00;97029.94;29395;204;63004;-59
2022/12/25 00:26:26;;;;;;;0.50;0.50;;;;;;;7.20;100.00;97031.56;29395;219;63009;-59
2022/12/25 00:26:58;;;;;;;0.50;0.50;;;;;;;7.21;100.00;97025.09;29395;372;63010;-60
2022/12/25 00:27:32;;;;;;;0.60;0.60;;;;;;;7.22;100.00;97024.00;29395;214;63009;-60
2022/12/25 00:28:04;;;;;;;0.60;0.60;;;;;;;7.22;100.00;97029.41;29395;252;63017;-60
2022/12/25 00:28:36;;;;;;;0.50;0.50;;;;;;;7.26;100.00;97022.38;29395;197;63009;-68
2022/12/25 00:29:11;;;;;;;0.50;0.50;;;;;;;7.26;100.00;97019.69;29394;237;64009;-68
2022/12/25 00:29:42;;;;;;;0.50;0.50;;;;;;;7.27;100.00;97015.91;29395;208;63009;-60
2022/12/25 00:30:15;;;;;;;0.50;0.50;;;;;;;7.25;99.97;97023.47;29395;231;63004;-60
2022/12/25 00:30:47;;;;;;;0.50;0.50;;;;;;;7.24;99.88;97027.25;29395;213;63009;-60
2022/12/25 00:31:19;;;;;;;0.50;0.50;;;;;;;7.21;99.94;97011.59;29395;218;63004;-70
2022/12/25 00:31:50;;;;;;;0.52;0.52;;;;;;;7.20;100.00;97015.38;29395;213;63009;-59
2022/12/25 00:32:21;;;;;;;0.60;0.60;;;;;;;7.21;100.00;97016.19;29394;202;64008;-59
2022/12/25 00:32:52;;;;;;;0.60;0.60;;;;;;;7.20;100.00;97015.38;29395;212;63008;-59
2022/12/25 00:33:25;;;;;;;0.60;0.60;;;;;;;7.20;100.00;97012.66;29395;206;63005;-73
2022/12/25 00:33:57;;;;;;;0.50;0.50;;;;;;;7.20;100.00;97014.56;29395;228;63009;-60
2022/12/25 00:34:28;;;;;;;0.60;0.60;;;;;;;7.20;100.00;97020.75;29394;262;64009;-58
2022/12/25 00:34:59;;;;;;;0.50;0.50;;;;;;;7.19;100.00;97008.34;29395;223;63009;-72
2022/12/25 00:35:30;;;;;;;0.57;0.57;;;;;;;7.20;100.00;97014.56;29395;211;63005;-72
2022/12/25 00:36:05;;;;;;;0.50;0.50;;;;;;;7.19;100.00;97008.34;29395;217;63009;-70
2022/12/25 00:36:36;;;;;;;0.50;0.50;;;;;;;7.17;100.00;97015.91;29394;211;64009;-60
2022/12/25 00:37:07;;;;;;;0.60;0.60;;;;;;;7.17;100.00;97015.91;29395;335;63009;-61
2022/12/25 00:37:38;;;;;;;0.50;0.50;;;;;;;7.18;100.00;97020.22;29395;223;63004;-60
2022/12/25 00:38:10;;;;;;;0.50;0.50;;;;;;;7.19;100.00;97013.75;29395;275;63009;-60
2022/12/25 00:38:42;;;;;;;0.50;0.50;;;;;;;7.19;100.00;97024.53;29395;217;63004;-60
2022/12/25 00:39:13;;;;;;;0.50;0.50;;;;;;;7.18;100.00;97020.22;29395;263;63009;-60
2022/12/25 00:39:48;;;;;;;0.52;0.52;;;;;;;7.18;100.00;97012.13;29394;227;64008;-59
2022/12/25 00:40:19;;;;;;;0.57;0.57;;;;;;;7.24;100.00;97015.63;29395;245;63008;-59
2022/12/25 00:40:52;;;;;;;0.60;0.60;;;;;;;7.25;99.86;97023.47;29395;238;63005;-60
2022/12/25 00:42:18;;;;;;;0.60;0.60;;;;;;;7.21;99.97;97011.59;29394;210;64009;-72
2022/12/25 00:42:51;;;;;;;0.50;0.50;;;;;;;7.21;100.00;97021.56;29395;223;63009;-59
2022/12/25 00:43:22;;;;;;;0.50;0.50;;;;;;;7.19;99.92;97018.31;29395;207;63005;-69
2022/12/25 00:43:53;;;;;;;0.50;0.50;;;;;;;7.18;100.00;97020.22;29394;230;64013;-59
2022/12/25 00:44:25;;;;;;;0.60;0.60;;;;;;;7.17;100.00;97020.47;29395;262;63005;-59
2022/12/25 00:44:56;;;;;;;0.60;0.60;;;;;;;7.14;100.00;97019.13;29395;270;63009;-59
2022/12/25 00:45:28;;;;;;;0.60;0.60;;;;;;;7.18;100.00;97017.53;29395;197;63004;-72
2022/12/25 00:46:02;;;;;;;0.50;0.50;;;;;;;7.19;100.00;97023.72;29395;250;63009;-59
2022/12/25 00:46:35;;;;;;;0.60;0.60;;;;;;;7.18;100.00;97012.13;29395;234;63011;-59
2022/12/25 00:47:06;;;;;;;0.60;0.60;;;;;;;7.17;100.00;97021.28;29394;227;64013;-59
2022/12/25 00:47:37;;;;;;;0.50;0.50;;;;;;;7.19;100.00;97023.72;29395;221;63012;-59
2022/12/25 00:48:09;;;;;;;0.50;0.50;;;;;;;7.20;100.00;97018.06;29395;228;63009;-58
2022/12/25 00:48:40;;;;;;;0.60;0.60;;;;;;;7.21;100.00;97019.69;29395;240;63005;-58
2022/12/25 00:49:12;;;;;;;0.60;0.60;;;;;;;7.22;100.00;97029.41;29394;219;64014;-70
2022/12/25 00:49:44;;;;;;;0.50;0.50;;;;;;;7.21;100.00;97027.78;29395;277;63011;-58
2022/12/25 00:50:17;;;;;;;0.50;0.50;;;;;;;7.21;100.00;97022.38;29395;275;63009;-58
2022/12/25 00:50:51;;;;;;;0.45;0.45;;;;;;;7.20;100.00;97030.75;29395;268;63005;-58
2022/12/25 00:51:23;;;;;;;0.60;0.60;;;;;;;7.18;100.00;97033.72;29395;249;63009;-71
2022/12/25 00:51:54;;;;;;;0.60;0.60;;;;;;;7.18;100.00;97027.50;29395;237;63005;-59
2022/12/25 00:52:25;;;;;;;0.50;0.50;;;;;;;7.18;100.00;97030.19;29395;211;63009;-59
2022/12/25 00:52:56;;;;;;;0.60;0.60;;;;;;;7.23;100.00;97033.72;29395;246;63004;-69
2022/12/25 00:53:28;;;;;;;0.50;0.50;;;;;;;7.23;100.00;97025.62;29394;205;64013;-59
2022/12/25 00:54:00;;;;;;;0.50;0.50;;;;;;;7.24;99.98;97032.66;29395;227;63004;-59
2022/12/25 00:54:31;;;;;;;0.50;0.50;;;;;;;7.22;100.00;97028.59;29395;202;63009;-59
2022/12/25 00:55:04;;;;;;;0.50;0.50;;;;;;;7.24;100.00;97032.66;29395;213;63004;-57
2022/12/25 00:55:35;;;;;;;0.50;0.50;;;;;;;7.24;100.00;97023.75;29395;242;63009;-59
2022/12/25 00:56:07;;;;;;;0.60;0.60;;;;;;;7.24;100.00;97032.66;29395;227;63005;-57
2022/12/25 00:56:38;;;;;;;0.50;0.50;;;;;;;7.23;100.00;97031.03;29395;218;63018;-58
2022/12/25 00:57:10;;;;;;;0.50;0.50;;;;;;;7.22;100.00;97029.41;29394;197;64009;-58
2022/12/25 00:57:41;;;;;;;0.60;0.60;;;;;;;7.23;100.00;97031.03;29395;224;63009;-58
2022/12/25 00:58:12;;;;;;;0.50;0.50;;;;;;;7.26;100.00;97033.19;29395;210;63005;-58
2022/12/25 00:58:43;;;;;;;0.57;0.57;;;;;;;7.26;100.00;97026.97;29395;205;63009;-58
2022/12/25 00:59:15;;;;;;;0.50;0.50;;;;;;;7.26;100.00;97032.38;29394;232;64009;-57
2022/12/25 00:59:46;;;;;;;0.50;0.50;;;;;;;7.24;100.00;97032.66;29395;207;63009;-58
2022/12/25 01:00:18;;;;;;;0.60;0.60;;;;;;;7.23;100.00;97036.41;29395;247;63004;-58
2022/12/25 01:00:49;;;;;;;0.60;0.60;;;;;;;7.22;100.00;97028.59;29395;198;63009;-58
2022/12/25 01:01:20;;;;;;;0.50;0.50;;;;;;;7.21;100.00;97035.87;29395;209;63004;-58
2022/12/25 01:01:51;;;;;;;0.50;0.50;;;;;;;7.21;100.00;97027.78;29394;202;64009;-59
2022/12/25 01:02:23;;;;;;;0.50;0.50;;;;;;;7.22;100.00;97029.41;29394;213;64008;-58
2022/12/25 01:02:54;;;;;;;0.60;0.60;;;;;;;7.21;100.00;97016.97;29395;204;63008;-57
2022/12/25 01:03:26;;;;;;;0.50;0.50;;;;;;;7.23;100.00;97025.62;29395;199;63005;-58
2022/12/25 01:04:02;;;;;;;0.50;0.50;;;;;;;7.23;100.00;97019.41;29395;211;63009;-58
2022/12/25 01:04:34;;;;;;;0.50;0.50;;;;;;;7.22;100.00;97024.00;29395;202;63005;-58
2022/12/25 01:05:07;;;;;;;0.50;0.50;;;;;;;7.23;100.00;97025.62;29394;209;64013;-58
2022/12/25 01:05:39;;;;;;;0.57;0.57;;;;;;;7.24;100.00;97021.03;29395;203;63005;-59
2022/12/25 01:06:14;;;;;;;0.50;0.50;;;;;;;7.23;100.00;97020.22;29395;214;63009;-58
2022/12/25 01:06:45;;;;;;;0.50;0.50;;;;;;;7.23;100.00;97020.22;29395;229;63005;-58
2022/12/25 01:07:17;;;;;;;0.60;0.60;;;;;;;7.24;100.00;97021.84;29394;210;64013;-59
2022/12/25 01:07:48;;;;;;;0.50;0.50;;;;;;;7.28;100.00;97014.81;29395;250;63004;-58
2022/12/25 01:08:19;;;;;;;0.60;0.60;;;;;;;7.28;100.00;97012.13;29395;244;63009;-58
2022/12/25 01:10:30;;;;;;;0.50;0.50;;;;;;;7.31;100.00;97016.97;29395;199;63004;-59
2022/12/25 01:11:05;;;;;;;0.50;0.50;;;;;;;7.35;100.00;97018.06;29394;244;64009;-59
2022/12/25 01:11:36;;;;;;;0.50;0.50;;;;;;;7.39;99.62;97002.12;29395;255;63005;-59
2022/12/25 01:12:08;;;;;;;0.50;0.50;;;;;;;7.40;99.40;97006.47;29395;205;63009;-58
2022/12/25 01:12:41;;;;;;;0.50;0.50;;;;;;;7.37;99.42;97010.50;29394;197;64009;-58
2022/12/25 01:13:13;;;;;;;0.50;0.50;;;;;;;7.35;99.51;97011.84;29395;230;63009;-60
2022/12/25 01:13:44;;;;;;;0.50;0.50;;;;;;;7.34;99.46;97008.34;29395;211;63005;-59
2022/12/25 01:14:15;;;;;;;0.50;0.50;;;;;;;7.30;99.67;97007.25;29395;269;63009;-58
2022/12/25 01:14:47;;;;;;;0.50;0.50;;;;;;;7.28;99.69;97001.31;29395;259;63018;-59
2022/12/25 01:15:19;;;;;;;0.50;0.50;;;;;;;7.26;99.97;97008.91;29395;196;63009;-59
2022/12/25 01:15:51;;;;;;;0.50;0.50;;;;;;;7.26;99.68;97006.19;29395;224;63004;-59
2022/12/25 01:16:23;;;;;;;0.60;0.60;;;;;;;7.26;99.86;97008.91;29395;205;63009;-59
2022/12/25 01:16:54;;;;;;;0.60;0.60;;;;;;;7.26;99.77;97010.78;29395;203;63004;-59
2022/12/25 01:17:25;;;;;;;0.60;0.60;;;;;;;7.25;100.00;97012.69;29395;216;63008;-59
2022/12/25 01:17:56;;;;;;;0.50;0.50;;;;;;;7.23;100.00;97017.53;29394;208;64008;-59
2022/12/25 01:18:28;;;;;;;0.50;0.50;;;;;;;7.23;100.00;97014.81;29395;202;63009;-59
2022/12/25 01:18:59;;;;;;;0.50;0.50;;;;;;;7.21;100.00;97016.97;29395;298;63005;-59
2022/12/25 01:19:30;;;;;;;0.50;0.50;;;;;;;7.19;100.00;97008.34;29395;199;63009;-59
2022/12/25 01:20:04;;;;;;;0.50;0.50;;;;;;;7.18;100.00;97012.13;29395;219;63005;-60
2022/12/25 01:20:35;;;;;;;0.50;0.50;;;;;;;7.16;100.00;97019.66;29395;238;63009;-59
2022/12/25 01:21:08;;;;;;;0.50;0.50;;;;;;;7.17;100.00;97025.88;29394;271;64009;-59
2022/12/25 01:21:39;;;;;;;0.50;0.50;;;;;;;7.17;100.00;97020.47;29395;219;63009;-59
2022/12/25 01:22:10;;;;;;;0.50;0.50;;;;;;;7.16;100.00;97025.06;29395;214;63005;-59
2022/12/25 01:22:42;;;;;;;0.50;0.50;;;;;;;7.17;100.00;97021.28;29395;206;63015;-59
2022/12/25 01:23:14;;;;;;;0.60;0.60;;;;;;;7.17;100.00;97031.28;29395;379;63004;-59
2022/12/25 01:23:46;;;;;;;0.50;0.50;;;;;;;7.19;100.00;97019.13;29395;219;63009;-59
2022/12/25 01:24:18;;;;;;;0.50;0.50;;;;;;;7.23;100.00;97032.91;29395;215;63004;-58
2022/12/25 01:24:49;;;;;;;0.50;0.50;;;;;;;7.26;100.00;97025.09;29395;216;63009;-59
2022/12/25 01:25:20;;;;;;;0.50;0.50;;;;;;;7.28;99.77;97028.31;29394;274;64008;-60
2022/12/25 01:25:51;;;;;;;0.52;0.52;;;;;;;7.28;99.69;97014.81;29395;220;63009;-59
2022/12/25 01:26:25;;;;;;;0.50;0.50;;;;;;;7.27;99.42;97015.91;29395;255;63005;-59
2022/12/25 01:26:56;;;;;;;0.50;0.50;;;;;;;7.31;99.62;97016.97;29396;213;63022;-59
2022/12/25 01:27:27;;;;;;;0.50;0.50;;;;;;;7.32;99.30;97020.47;29396;220;63011;-60
2022/12/25 01:27:58;;;;;;;0.50;0.50;;;;;;;7.35;98.99;97022.66;29396;207;63009;-59
2022/12/25 01:28:30;;;;;;;0.50;0.50;;;;;;;7.35;99.33;97023.47;29396;216;63005;-58
2022/12/25 01:29:01;;;;;;;0.50;0.50;;;;;;;7.36;99.18;97014.28;29396;208;63009;-59
2022/12/25 01:29:33;;;;;;;0.50;0.50;;;;;;;7.39;98.66;97019.16;29396;202;63004;-60
2022/12/25 01:30:06;;;;;;;0.50;0.50;;;;;;;7.38;98.47;97022.94;29395;267;64013;-60
2022/12/25 01:30:37;;;;;;;0.50;0.50;;;;;;;7.38;98.81;97017.53;29396;199;63004;-59
2022/12/25 01:31:11;;;;;;;0.50;0.50;;;;;;;7.38;98.76;97022.13;29396;199;63009;-59
2022/12/25 01:31:43;;;;;;;0.52;0.52;;;;;;;7.38;98.62;97020.22;29396;208;63004;-59
2022/12/25 01:32:15;;;;;;;0.50;0.50;;;;;;;7.40;98.84;97019.97;29396;264;63008;-60
2022/12/25 01:32:46;;;;;;;0.50;0.50;;;;;;;7.42;98.64;97023.19;29396;239;63004;-58
2022/12/25 01:33:17;;;;;;;0.57;0.57;;;;;;;7.40;98.20;97026.16;29395;201;64013;-59
2022/12/25 01:33:49;;;;;;;0.60;0.60;;;;;;;7.40;98.26;97033.47;29396;243;63005;-59
2022/12/25 01:34:20;;;;;;;0.50;0.50;;;;;;;7.42;98.52;97025.09;29396;264;63014;-59
2022/12/25 01:34:52;;;;;;;0.50;0.50;;;;;;;7.43;97.94;97029.41;29396;206;63005;-59
2022/12/25 01:35:23;;;;;;;0.55;0.55;;;;;;;7.42;98.35;97027.78;29396;219;63009;-59
2022/12/25 01:35:54;;;;;;;0.60;0.60;;;;;;;7.42;98.44;97031.28;29396;245;63008;-60
2022/12/25 01:36:26;;;;;;;0.50;0.50;;;;;;;7.43;98.22;97026.72;29396;199;63009;-60
2022/12/25 01:36:57;;;;;;;0.50;0.50;;;;;;;7.42;98.14;97027.78;29396;227;63000;-59
2022/12/25 01:37:29;;;;;;;0.57;0.57;;;;;;;7.43;98.30;97034.81;29396;213;63009;-60
2022/12/25 01:38:01;;;;;;;0.50;0.50;;;;;;;7.43;97.94;97034.81;29396;236;63004;-60
2022/12/25 01:38:32;;;;;;;0.50;0.50;;;;;;;7.42;98.04;97033.19;29395;208;64013;-58
2022/12/25 01:39:04;;;;;;;0.57;0.57;;;;;;;7.40;98.28;97042.38;29396;263;63017;-58
2022/12/25 01:39:36;;;;;;;0.60;0.60;;;;;;;7.39;98.39;97042.63;29396;207;63008;-59
2022/12/25 01:40:08;;;;;;;0.50;0.50;;;;;;;7.39;98.20;97056.94;29396;268;63005;-58
2022/12/25 01:40:39;;;;;;;0.57;0.57;;;;;;;7.41;98.44;97048.56;29396;236;63009;-59
2022/12/25 01:41:12;;;;;;;0.50;0.50;;;;;;;7.40;98.41;97044.25;29395;261;64009;-60
2022/12/25 01:41:44;;;;;;;0.50;0.50;;;;;;;7.41;98.45;97048.56;29396;199;63005;-59
2022/12/25 01:42:16;;;;;;;0.50;0.50;;;;;;;7.39;98.02;97040.75;29396;205;63005;-59
2022/12/25 01:42:48;;;;;;;0.57;0.57;;;;;;;7.38;98.24;97055.31;29396;213;63009;-59
2022/12/25 01:43:29;;;;;;;0.40;0.40;;;;;;;7.35;98.60;97057.75;29396;222;63005;-59
2022/12/25 01:44:54;;;;;;;0.50;0.50;;;;;;;7.34;98.33;97062.31;29418;197;63009;-59
2022/12/25 01:45:35;;;;;;;0.50;0.50;;;;;;;7.30;98.79;97055.84;29395;220;64009;-59
2022/12/25 01:46:06;;;;;;;0.60;0.60;;;;;;;7.29;98.93;97056.91;29440;208;63009;-59
2022/12/25 01:46:37;;;;;;;0.60;0.60;;;;;;;7.28;98.90;97055.28;29374;210;63004;-58
2022/12/25 01:47:08;;;;;;;0.50;0.50;;;;;;;7.27;98.79;97061.81;29396;208;63008;-67
2022/12/25 01:47:40;;;;;;;0.60;0.60;;;;;;;7.26;99.26;97056.66;29396;217;63008;-60
2022/12/25 01:48:16;;;;;;;0.60;0.60;;;;;;;7.26;99.49;97062.06;29396;213;63009;-59
2022/12/25 01:48:49;;;;;;;0.50;0.50;;;;;;;7.24;99.30;97059.63;29396;200;63005;-58
2022/12/25 01:49:24;;;;;;;0.50;0.50;;;;;;;7.24;99.41;97065.03;29395;197;64013;-59
2022/12/25 01:49:55;;;;;;;0.60;0.60;;;;;;;7.23;99.58;97055.31;29396;237;63005;-59
2022/12/25 01:50:27;;;;;;;0.50;0.50;;;;;;;7.24;100.00;97064.22;29396;229;63009;-59
2022/12/25 01:51:05;;;;;;;0.50;0.50;;;;;;;7.23;100.00;97052.63;29396;206;63009;-59
2022/12/25 01:51:58;;;;;;;0.50;0.50;;;;;;;7.23;100.00;97057.19;29396;235;63009;-58
2022/12/25 01:52:30;;;;;;;0.50;0.50;;;;;;;7.24;100.00;97059.63;29395;199;64009;-59
2022/12/25 01:53:03;;;;;;;0.60;0.60;;;;;;;7.23;100.00;97052.63;29396;215;63009;-59
2022/12/25 01:53:34;;;;;;;0.43;0.43;;;;;;;7.25;100.00;97050.47;29396;279;63000;-59
2022/12/25 01:54:13;;;;;;;0.45;0.45;;;;;;;7.26;100.00;97051.28;29396;218;63009;-59
2022/12/25 01:54:51;;;;;;;0.50;0.50;;;;;;;7.27;100.00;97056.41;29395;213;64008;-59
2022/12/25 01:55:23;;;;;;;0.50;0.50;;;;;;;7.27;100.00;97051.00;29396;224;63009;-59
2022/12/25 01:56:01;;;;;;;0.50;0.50;;;;;;;7.28;100.00;97049.91;29396;257;63005;-59
2022/12/25 01:56:36;;;;;;;0.50;0.50;;;;;;;7.29;100.00;97046.13;29396;202;63009;-59
2022/12/25 01:57:15;;;;;;;0.50;0.50;;;;;;;7.29;100.00;97048.81;29396;221;63005;-59
2022/12/25 01:57:48;;;;;;;0.50;0.50;;;;;;;7.28;100.00;97044.50;29396;234;63009;-58
2022/12/25 01:58:20;;;;;;;0.50;0.50;;;;;;;7.28;100.00;97044.50;29396;313;63005;-63
2022/12/25 01:58:53;;;;;;;0.50;0.50;;;;;;;7.30;99.99;97042.34;29395;212;64013;-58
2022/12/25 01:59:26;;;;;;;0.50;0.50;;;;;;;7.29;100.00;97046.13;29396;207;63004;-59
2022/12/25 02:00:01;;;;;;;0.50;0.50;;;;;;;7.30;100.00;97044.22;29395;237;64013;-58
2022/12/25 02:00:33;;;;;;;0.50;0.50;;;;;;;7.30;99.83;97036.94;29396;217;63009;-59
2022/12/25 02:01:04;;;;;;;0.50;0.50;;;;;;;7.30;100.00;97042.34;29396;234;63009;-58
2022/12/25 02:01:35;;;;;;;0.60;0.60;;;;;;;7.30;100.00;97045.03;29395;245;64009;-59
2022/12/25 02:02:07;;;;;;;0.50;0.50;;;;;;;7.29;100.00;97029.94;29396;216;63008;-59
2022/12/25 02:02:40;;;;;;;0.60;0.60;;;;;;;7.30;100.00;97039.66;29395;248;64008;-59
2022/12/25 02:03:11;;;;;;;0.50;0.50;;;;;;;7.31;100.00;97049.38;29396;232;63009;-59
2022/12/25 02:03:43;;;;;;;0.50;0.50;;;;;;;7.31;100.00;97035.06;29396;236;63005;-59
2022/12/25 02:04:38;;;;;;;0.60;0.60;;;;;;;7.33;100.00;97036.41;29396;217;63019;-60
2022/12/25 02:05:18;;;;;;;0.50;0.50;;;;;;;7.43;99.46;97035.63;29396;264;63005;-59
2022/12/25 02:05:50;;;;;;;0.50;0.50;;;;;;;7.44;99.27;97031.03;29418;205;63009;-59
2022/12/25 02:06:25;;;;;;;0.60;0.60;;;;;;;7.47;99.15;97031.31;29396;214;63005;-59
2022/12/25 02:06:57;;;;;;;0.60;0.60;;;;;;;7.48;98.58;97032.12;29395;227;64013;-60
2022/12/25 02:07:31;;;;;;;0.50;0.50;;;;;;;7.47;98.93;97025.91;29395;204;64009;-60
2022/12/25 02:08:11;;;;;;;0.50;0.50;;;;;;;7.46;98.76;97028.87;29396;209;63009;-59
2022/12/25 02:08:43;;;;;;;0.60;0.60;;;;;;;7.45;98.94;97029.94;29378;261;125004;-60
2022/12/25 02:09:15;;;;;;;0.50;0.50;;;;;;;7.46;98.65;97026.19;29395;410;64013;-59
2022/12/25 02:09:47;;;;;;;0.50;0.50;;;;;;;7.45;98.75;97027.25;29396;216;63004;-60
2022/12/25 02:10:19;;;;;;;0.60;0.60;;;;;;;7.46;98.92;97028.87;29395;241;64014;-59
2022/12/25 02:10:50;;;;;;;0.50;0.50;;;;;;;7.45;99.09;97029.94;29397;258;63005;-59
2022/12/25 02:12:19;;;;;;;0.50;0.50;;;;;;;7.39;98.59;97029.94;29397;212;63005;-59
2022/12/25 02:12:50;;;;;;;0.50;0.50;;;;;;;7.36;99.40;97030.47;29397;196;63009;-60
2022/12/25 02:13:21;;;;;;;0.50;0.50;;;;;;;7.36;99.27;97024.28;29397;207;63008;-59
2022/12/25 02:13:53;;;;;;;0.57;0.57;;;;;;;7.35;99.86;97023.47;29397;205;63009;-59
2022/12/25 02:14:29;;;;;;;0.50;0.50;;;;;;;7.35;99.50;97023.47;29397;206;63005;-59
2022/12/25 02:15:08;;;;;;;0.60;0.60;;;;;;;7.33;99.96;97025.62;29397;234;63009;-58
2022/12/25 02:16:00;;;;;;;0.50;0.50;;;;;;;7.31;99.96;97027.78;29396;333;64009;-60
2022/12/25 02:16:37;;;;;;;0.50;0.50;;;;;;;7.27;100.00;97021.31;29397;313;63009;-59
2022/12/25 02:17:55;;;;;;;0.50;0.50;;;;;;;7.24;100.00;97021.84;29397;279;63004;-59
2022/12/25 02:18:45;;;;;;;0.50;0.50;;;;;;;7.21;100.00;97032.38;29397;205;63009;-59
2022/12/25 02:19:53;;;;;;;0.50;0.50;;;;;;;7.19;100.00;97029.94;29379;212;125005;-59
2022/12/25 02:21:13;;;;;;;0.50;0.50;;;;;;;7.15;100.00;97026.16;29374;206;64009;-59
2022/12/25 02:22:20;;;;;;;0.60;0.60;;;;;;;7.22;100.00;97034.78;29397;217;63009;-59
2022/12/25 02:23:20;;;;;;;0.50;0.50;;;;;;;7.20;100.00;97036.16;29396;275;63004;-59
2022/12/25 02:24:35;;;;;;;0.50;0.50;;;;;;;7.18;100.00;97033.72;29396;259;63009;-58
2022/12/25 02:25:46;;;;;;;0.60;0.60;;;;;;;7.19;100.00;97035.34;29396;202;63004;-59
2022/12/25 02:27:15;;;;;;;0.60;0.60;;;;;;;7.23;100.00;97024.81;29417;303;64014;-59
2022/12/25 02:28:03;;;;;;;0.60;0.60;;;;;;;7.23;100.00;97025.62;29397;286;63009;-59
2022/12/25 02:29:16;;;;;;;0.50;0.50;;;;;;;7.24;100.00;97031.84;29396;203;63005;-59
2022/12/25 02:30:03;;;;;;;0.50;0.50;;;;;;;7.22;100.00;97029.41;29396;235;63004;-59
2022/12/25 02:30:41;;;;;;;0.60;0.60;;;;;;;7.25;100.00;97018.06;29396;253;63009;-59
2022/12/25 02:31:31;;;;;;;0.50;0.50;;;;;;;7.24;100.00;97008.34;29396;215;63004;-59
2022/12/25 02:32:39;;;;;;;0.60;0.60;;;;;;;7.25;100.00;97007.28;29395;225;64013;-59
2022/12/25 02:34:20;;;;;;;0.60;0.60;;;;;;;7.20;100.00;97009.16;29395;228;64014;-59
2022/12/25 02:35:05;;;;;;;0.60;0.60;;;;;;;7.18;100.00;97011.31;29418;282;63005;-59
2022/12/25 02:35:37;;;;;;;0.50;0.50;;;;;;;7.16;100.00;97018.84;29396;208;63009;-58
2022/12/25 02:36:13;;;;;;;0.50;0.50;;;;;;;7.14;100.00;97019.13;29395;198;64009;-69
2022/12/25 02:37:05;;;;;;;0.50;0.50;;;;;;;7.11;100.00;97021.53;29396;220;63009;-59
2022/12/25 02:37:56;;;;;;;0.50;0.50;;;;;;;7.10;100.00;97014.53;29396;311;63004;-59
2022/12/25 02:38:36;;;;;;;0.50;0.50;;;;;;;7.05;100.00;97026.94;29418;204;63009;-58
2022/12/25 02:40:39;;;;;;;0.60;0.60;;;;;;;7.00;100.00;97026.91;29395;199;64013;-59
2022/12/25 02:41:15;;;;;;;0.50;0.50;;;;;;;7.00;100.00;97018.00;29395;242;64009;-59
2022/12/25 02:41:50;;;;;;;0.50;0.50;;;;;;;6.99;100.00;97024.47;29396;331;63009;-59
2022/12/25 03:07:12;;;;;;;0.50;0.50;;;;;;;7.12;100.00;97025.88;29395;223;64024;-59
2022/12/25 03:07:44;;;;;;;0.60;0.60;;;;;;;7.11;100.00;97027.75;29395;273;64009;-59
2022/12/25 03:08:37;;;;;;;0.50;0.50;;;;;;;7.11;100.00;97022.34;29396;348;63004;-59
2022/12/25 03:12:07;;;;;;;0.50;0.50;;;;;;;7.14;100.00;97011.03;29395;197;64009;-59
2022/12/25 03:13:33;;;;;;;0.57;0.57;;;;;;;7.15;100.00;97012.66;29419;218;63009;-58
2022/12/25 03:16:49;;;;;;;0.60;0.60;;;;;;;7.09;100.00;97008.31;29417;215;63008;-59
2022/12/25 03:17:21;;;;;;;0.60;0.60;;;;;;;7.11;100.00;97000.78;29394;273;64005;-59
2022/12/25 03:17:54;;;;;;;0.50;0.50;;;;;;;7.14;100.00;96994.84;29395;219;63009;-59
2022/12/25 03:18:29;;;;;;;0.60;0.60;;;;;;;7.13;100.00;96993.22;29395;230;63007;-58
2022/12/25 03:26:53;;;;;;;0.60;0.60;;;;;;;7.14;100.00;97004.81;29394;219;64014;-59
2022/12/25 03:26:56;;;;;;;0.60;0.60;;;;;;;7.12;100.00;97002.41;29395;218;63008;-58
2022/12/25 03:27:32;;;;;;;0.50;0.50;;;;;;;7.11;100.00;96997.25;29395;222;63009;-58
2022/12/25 03:28:05;;;;;;;0.60;0.60;;;;;;;7.12;100.00;96996.19;29395;202;63005;-58
2022/12/25 03:28:36;;;;;;;0.60;0.60;;;;;;;7.11;100.00;97003.47;29395;222;63009;-60
2022/12/25 03:29:07;;;;;;;0.50;0.50;;;;;;;7.09;100.00;96997.53;29393;226;64009;-59
2022/12/25 03:31:15;;;;;;;0.52;0.52;;;;;;;7.05;100.00;96991.03;29395;204;63004;-58
2022/12/25 03:31:55;;;;;;;0.50;0.50;;;;;;;7.02;100.00;96992.38;29393;217;64013;-59
2022/12/25 03:33:04;;;;;;;0.50;0.50;;;;;;;7.00;100.00;96994.53;29395;221;63005;-59
2022/12/25 03:35:44;;;;;;;0.60;0.60;;;;;;;7.01;100.00;96995.34;29395;261;63005;-59